sensor_id;sensor_type;location;lat;lon;timestamp;temperature;humidity
54264;DHT22;40178;53.042;6.406;2023-02-23T00:01:21;7.20;99.90
54264;DHT22;40178;53.042;6.406;2023-02-23T00:03:47;7.20;99.90
54264;DHT22;40178;53.042;6.406;2023-02-23T00:06:15;7.20;99.90
54264;DHT22;40178;53.042;6.406;2023-02-23T00:08:40;7.20;99.90
54264;DHT22;40178;53.042;6.406;2023-02-23T00:11:10;7.10;99.90
54264;DHT22;40178;53.042;6.406;2023-02-23T00:13:37;7.20;99.90
54264;DHT22;40178;53.042;6.406;2023-02-23T00:16:23;7.20;99.90
54264;DHT22;40178;53.042;6.406;2023-02-23T00:18:52;7.20;99.90
54264;DHT22;40178;53.042;6.406;2023-02-23T00:21:29;7.20;99.90
54264;DHT22;40178;53.042;6.406;2023-02-23T00:24:04;7.20;99.90
54264;DHT22;40178;53.042;6.406;2023-02-23T00:26:32;7.20;99.90
54264;DHT22;40178;53.042;6.406;2023-02-23T00:29:04;7.20;99.90
54264;DHT22;40178;53.042;6.406;2023-02-23T00:31:31;7.20;99.90
54264;DHT22;40178;53.042;6.406;2023-02-23T00:33:58;7.20;99.90
54264;DHT22;40178;53.042;6.406;2023-02-23T00:36:29;7.20;99.90
54264;DHT22;40178;53.042;6.406;2023-02-23T00:38:58;7.30;99.90
54264;DHT22;40178;53.042;6.406;2023-02-23T00:41:25;7.20;99.90
54264;DHT22;40178;53.042;6.406;2023-02-23T00:43:55;7.20;99.90
54264;DHT22;40178;53.042;6.406;2023-02-23T00:46:23;7.20;99.90
54264;DHT22;40178;53.042;6.406;2023-02-23T00:48:51;7.20;99.90
54264;DHT22;40178;53.042;6.406;2023-02-23T00:51:20;7.20;99.90
54264;DHT22;40178;53.042;6.406;2023-02-23T00:53:46;7.20;99.90
54264;DHT22;40178;53.042;6.406;2023-02-23T00:56:14;7.20;99.90
54264;DHT22;40178;53.042;6.406;2023-02-23T00:58:40;7.20;99.90
54264;DHT22;40178;53.042;6.406;2023-02-23T01:01:09;7.30;99.90
54264;DHT22;40178;53.042;6.406;2023-02-23T01:03:36;7.30;99.90
54264;DHT22;40178;53.042;6.406;2023-02-23T01:06:04;7.20;99.90
54264;DHT22;40178;53.042;6.406;2023-02-23T01:08:39;7.20;99.90
54264;DHT22;40178;53.042;6.406;2023-02-23T01:11:07;7.30;99.90
54264;DHT22;40178;53.042;6.406;2023-02-23T01:13:35;7.20;99.90
54264;DHT22;40178;53.042;6.406;2023-02-23T01:16:07;7.20;99.90
54264;DHT22;40178;53.042;6.406;2023-02-23T01:18:34;7.20;99.90
54264;DHT22;40178;53.042;6.406;2023-02-23T01:21:01;7.20;99.90
54264;DHT22;40178;53.042;6.406;2023-02-23T01:23:26;7.20;99.90
54264;DHT22;40178;53.042;6.406;2023-02-23T01:25:52;7.20;99.90
54264;DHT22;40178;53.042;6.406;2023-02-23T01:28:18;7.20;99.90
54264;DHT22;40178;53.042;6.406;2023-02-23T01:30:43;7.20;99.90
54264;DHT22;40178;53.042;6.406;2023-02-23T01:33:09;7.30;99.90
54264;DHT22;40178;53.042;6.406;2023-02-23T01:35:37;7.20;99.90
54264;DHT22;40178;53.042;6.406;2023-02-23T01:38:03;7.20;99.90
54264;DHT22;40178;53.042;6.406;2023-02-23T01:40:29;7.20;99.90
54264;DHT22;40178;53.042;6.406;2023-02-23T01:45:39;7.20;99.90
54264;DHT22;40178;53.042;6.406;2023-02-23T01:48:16;7.20;99.90
54264;DHT22;40178;53.042;6.406;2023-02-23T01:51:00;7.20;99.90
54264;DHT22;40178;53.042;6.406;2023-02-23T01:53:29;7.20;99.90
54264;DHT22;40178;53.042;6.406;2023-02-23T01:55:58;7.20;99.90
54264;DHT22;40178;53.042;6.406;2023-02-23T01:58:26;7.20;99.90
54264;DHT22;40178;53.042;6.406;2023-02-23T02:00:56;7.20;99.90
54264;DHT22;40178;53.042;6.406;2023-02-23T02:03:26;7.20;99.90
54264;DHT22;40178;53.042;6.406;2023-02-23T02:05:53;7.20;99.90
54264;DHT22;40178;53.042;6.406;2023-02-23T02:08:21;7.20;99.90
54264;DHT22;40178;53.042;6.406;2023-02-23T02:10:50;7.20;99.90
54264;DHT22;40178;53.042;6.406;2023-02-23T02:13:22;7.20;99.90
54264;DHT22;40178;53.042;6.406;2023-02-23T02:21:56;7.20;99.90
54264;DHT22;40178;53.042;6.406;2023-02-23T02:30:35;7.20;99.90
54264;DHT22;40178;53.042;6.406;2023-02-23T02:39:14;7.20;99.90
54264;DHT22;40178;53.042;6.406;2023-02-23T02:47:08;7.10;99.90
54264;DHT22;40178;53.042;6.406;2023-02-23T02:49:58;7.20;99.90
54264;DHT22;40178;53.042;6.406;2023-02-23T02:52:36;7.10;99.90
54264;DHT22;40178;53.042;6.406;2023-02-23T02:55:14;7.20;99.90
54264;DHT22;40178;53.042;6.406;2023-02-23T02:57:42;7.10;99.90
54264;DHT22;40178;53.042;6.406;2023-02-23T03:00:17;7.10;99.90
54264;DHT22;40178;53.042;6.406;2023-02-23T03:03:02;7.10;99.90
54264;DHT22;40178;53.042;6.406;2023-02-23T03:05:48;7.20;99.90
54264;DHT22;40178;53.042;6.406;2023-02-23T03:08:40;7.10;99.90
54264;DHT22;40178;53.042;6.406;2023-02-23T03:11:39;7.10;99.90
54264;DHT22;40178;53.042;6.406;2023-02-23T03:14:34;7.10;99.90
54264;DHT22;40178;53.042;6.406;2023-02-23T03:17:53;7.10;99.90
54264;DHT22;40178;53.042;6.406;2023-02-23T03:20:51;7.20;99.90
54264;DHT22;40178;53.042;6.406;2023-02-23T03:24:29;7.10;99.90
54264;DHT22;40178;53.042;6.406;2023-02-23T03:26:58;7.10;99.90
54264;DHT22;40178;53.042;6.406;2023-02-23T03:29:48;7.10;99.90
54264;DHT22;40178;53.042;6.406;2023-02-23T03:32:50;7.20;99.90
54264;DHT22;40178;53.042;6.406;2023-02-23T03:38:58;7.10;99.90
54264;DHT22;40178;53.042;6.406;2023-02-23T03:41:47;7.10;99.90
54264;DHT22;40178;53.042;6.406;2023-02-23T03:44:39;7.10;99.90
54264;DHT22;40178;53.042;6.406;2023-02-23T03:47:28;7.10;99.90
54264;DHT22;40178;53.042;6.406;2023-02-23T03:50:22;7.10;99.90
54264;DHT22;40178;53.042;6.406;2023-02-23T03:53:10;7.10;99.90
54264;DHT22;40178;53.042;6.406;2023-02-23T03:55:58;7.10;99.90
54264;DHT22;40178;53.042;6.406;2023-02-23T03:58:49;7.20;99.90
54264;DHT22;40178;53.042;6.406;2023-02-23T04:01:35;7.10;99.90
54264;DHT22;40178;53.042;6.406;2023-02-23T04:04:21;7.10;99.90
54264;DHT22;40178;53.042;6.406;2023-02-23T04:07:07;7.10;99.90
54264;DHT22;40178;53.042;6.406;2023-02-23T04:09:52;7.20;99.90
54264;DHT22;40178;53.042;6.406;2023-02-23T04:12:43;7.10;99.90
54264;DHT22;40178;53.042;6.406;2023-02-23T04:15:38;7.20;99.90
54264;DHT22;40178;53.042;6.406;2023-02-23T04:18:06;7.20;99.90
54264;DHT22;40178;53.042;6.406;2023-02-23T04:20:32;7.20;99.90
54264;DHT22;40178;53.042;6.406;2023-02-23T04:22:57;7.20;99.90
54264;DHT22;40178;53.042;6.406;2023-02-23T04:25:23;7.20;99.90
54264;DHT22;40178;53.042;6.406;2023-02-23T04:27:49;7.10;99.90
54264;DHT22;40178;53.042;6.406;2023-02-23T04:30:15;8.00;99.90
54264;DHT22;40178;53.042;6.406;2023-02-23T04:32:41;7.10;99.90
54264;DHT22;40178;53.042;6.406;2023-02-23T04:35:08;7.20;99.90
54264;DHT22;40178;53.042;6.406;2023-02-23T04:37:34;7.20;99.90
54264;DHT22;40178;53.042;6.406;2023-02-23T04:40:00;7.20;99.90
54264;DHT22;40178;53.042;6.406;2023-02-23T04:42:25;7.10;99.90
54264;DHT22;40178;53.042;6.406;2023-02-23T04:44:51;7.10;99.90
54264;DHT22;40178;53.042;6.406;2023-02-23T04:47:16;7.20;99.90
54264;DHT22;40178;53.042;6.406;2023-02-23T04:49:43;7.10;99.90
54264;DHT22;40178;53.042;6.406;2023-02-23T04:52:08;7.20;99.90
54264;DHT22;40178;53.042;6.406;2023-02-23T04:54:37;7.10;99.90
54264;DHT22;40178;53.042;6.406;2023-02-23T04:57:04;7.20;99.90
54264;DHT22;40178;53.042;6.406;2023-02-23T04:59:29;7.10;99.90
54264;DHT22;40178;53.042;6.406;2023-02-23T05:01:55;7.10;99.90
54264;DHT22;40178;53.042;6.406;2023-02-23T05:04:21;7.10;99.90
54264;DHT22;40178;53.042;6.406;2023-02-23T05:06:47;7.10;99.90
54264;DHT22;40178;53.042;6.406;2023-02-23T05:09:13;7.10;99.90
54264;DHT22;40178;53.042;6.406;2023-02-23T05:11:38;7.10;99.90
54264;DHT22;40178;53.042;6.406;2023-02-23T05:14:04;7.10;99.90
54264;DHT22;40178;53.042;6.406;2023-02-23T05:16:30;7.10;99.90
54264;DHT22;40178;53.042;6.406;2023-02-23T05:18:56;7.10;99.90
54264;DHT22;40178;53.042;6.406;2023-02-23T05:21:22;7.10;99.90
54264;DHT22;40178;53.042;6.406;2023-02-23T05:23:48;7.10;99.90
54264;DHT22;40178;53.042;6.406;2023-02-23T05:26:13;7.10;99.90
54264;DHT22;40178;53.042;6.406;2023-02-23T05:28:41;7.10;99.90
54264;DHT22;40178;53.042;6.406;2023-02-23T05:31:07;7.70;99.90
54264;DHT22;40178;53.042;6.406;2023-02-23T05:33:34;7.00;99.90
54264;DHT22;40178;53.042;6.406;2023-02-23T05:36:16;7.10;99.90
54264;DHT22;40178;53.042;6.406;2023-02-23T05:38:43;7.00;99.90
54264;DHT22;40178;53.042;6.406;2023-02-23T05:41:12;7.00;99.90
54264;DHT22;40178;53.042;6.406;2023-02-23T05:43:38;7.10;99.90
54264;DHT22;40178;53.042;6.406;2023-02-23T05:46:16;7.10;99.90
54264;DHT22;40178;53.042;6.406;2023-02-23T05:48:42;7.10;99.90
54264;DHT22;40178;53.042;6.406;2023-02-23T05:51:11;7.10;99.90
54264;DHT22;40178;53.042;6.406;2023-02-23T05:53:37;7.10;99.90
54264;DHT22;40178;53.042;6.406;2023-02-23T05:56:05;7.00;99.90
54264;DHT22;40178;53.042;6.406;2023-02-23T05:58:31;7.00;99.90
54264;DHT22;40178;53.042;6.406;2023-02-23T06:00:57;7.10;99.90
54264;DHT22;40178;53.042;6.406;2023-02-23T06:03:22;7.00;99.90
54264;DHT22;40178;53.042;6.406;2023-02-23T06:05:52;7.10;99.90
54264;DHT22;40178;53.042;6.406;2023-02-23T06:08:18;7.10;99.90
54264;DHT22;40178;53.042;6.406;2023-02-23T06:10:44;7.00;99.90
54264;DHT22;40178;53.042;6.406;2023-02-23T06:13:10;7.10;99.90
54264;DHT22;40178;53.042;6.406;2023-02-23T06:15:36;7.10;99.90
54264;DHT22;40178;53.042;6.406;2023-02-23T06:18:02;7.00;99.90
54264;DHT22;40178;53.042;6.406;2023-02-23T06:20:28;7.60;99.90
54264;DHT22;40178;53.042;6.406;2023-02-23T06:22:53;7.00;99.90
54264;DHT22;40178;53.042;6.406;2023-02-23T06:25:20;7.00;99.90
54264;DHT22;40178;53.042;6.406;2023-02-23T06:27:45;7.20;99.90
54264;DHT22;40178;53.042;6.406;2023-02-23T06:30:11;7.00;99.90
54264;DHT22;40178;53.042;6.406;2023-02-23T06:32:37;7.00;99.90
54264;DHT22;40178;53.042;6.406;2023-02-23T06:35:04;6.90;99.90
54264;DHT22;40178;53.042;6.406;2023-02-23T06:37:31;6.90;99.90
54264;DHT22;40178;53.042;6.406;2023-02-23T06:39:57;7.00;99.90
54264;DHT22;40178;53.042;6.406;2023-02-23T06:42:23;7.00;99.90
54264;DHT22;40178;53.042;6.406;2023-02-23T06:44:48;7.00;99.90
54264;DHT22;40178;53.042;6.406;2023-02-23T06:47:14;7.00;99.90
54264;DHT22;40178;53.042;6.406;2023-02-23T06:49:40;7.00;99.90
54264;DHT22;40178;53.042;6.406;2023-02-23T06:52:07;7.00;99.90
54264;DHT22;40178;53.042;6.406;2023-02-23T06:54:33;7.00;99.90
54264;DHT22;40178;53.042;6.406;2023-02-23T06:56:59;7.00;99.90
54264;DHT22;40178;53.042;6.406;2023-02-23T06:59:25;6.80;99.90
54264;DHT22;40178;53.042;6.406;2023-02-23T07:01:50;6.90;99.90
54264;DHT22;40178;53.042;6.406;2023-02-23T07:04:16;6.90;99.90
54264;DHT22;40178;53.042;6.406;2023-02-23T07:06:42;6.90;99.90
54264;DHT22;40178;53.042;6.406;2023-02-23T07:09:08;6.90;99.90
54264;DHT22;40178;53.042;6.406;2023-02-23T07:11:34;6.90;99.90
54264;DHT22;40178;53.042;6.406;2023-02-23T07:14:00;6.90;99.90
54264;DHT22;40178;53.042;6.406;2023-02-23T07:16:29;6.90;99.90
54264;DHT22;40178;53.042;6.406;2023-02-23T07:18:55;6.90;99.90
54264;DHT22;40178;53.042;6.406;2023-02-23T07:21:21;6.90;99.90
54264;DHT22;40178;53.042;6.406;2023-02-23T07:23:47;6.90;99.90
54264;DHT22;40178;53.042;6.406;2023-02-23T07:26:15;6.90;99.90
54264;DHT22;40178;53.042;6.406;2023-02-23T07:28:42;6.90;99.90
54264;DHT22;40178;53.042;6.406;2023-02-23T07:31:08;6.90;99.90
54264;DHT22;40178;53.042;6.406;2023-02-23T07:33:33;6.90;99.90
54264;DHT22;40178;53.042;6.406;2023-02-23T07:35:59;7.00;99.90
54264;DHT22;40178;53.042;6.406;2023-02-23T07:38:25;6.90;99.90
54264;DHT22;40178;53.042;6.406;2023-02-23T07:40:50;6.90;99.90
54264;DHT22;40178;53.042;6.406;2023-02-23T07:43:16;8.10;99.90
54264;DHT22;40178;53.042;6.406;2023-02-23T07:45:42;6.90;99.90
54264;DHT22;40178;53.042;6.406;2023-02-23T07:48:08;6.90;99.90
54264;DHT22;40178;53.042;6.406;2023-02-23T07:50:34;6.90;99.90
54264;DHT22;40178;53.042;6.406;2023-02-23T07:53:00;6.90;99.90
54264;DHT22;40178;53.042;6.406;2023-02-23T07:55:25;6.90;99.90
54264;DHT22;40178;53.042;6.406;2023-02-23T07:57:51;6.90;99.90
54264;DHT22;40178;53.042;6.406;2023-02-23T08:00:17;6.90;99.90
54264;DHT22;40178;53.042;6.406;2023-02-23T08:02:43;6.90;99.90
54264;DHT22;40178;53.042;6.406;2023-02-23T08:05:09;6.90;99.90
54264;DHT22;40178;53.042;6.406;2023-02-23T08:07:35;6.90;99.90
54264;DHT22;40178;53.042;6.406;2023-02-23T08:10:00;6.90;99.90
54264;DHT22;40178;53.042;6.406;2023-02-23T08:12:27;6.90;99.90
54264;DHT22;40178;53.042;6.406;2023-02-23T08:14:53;8.10;99.90
54264;DHT22;40178;53.042;6.406;2023-02-23T08:17:19;7.00;99.90
54264;DHT22;40178;53.042;6.406;2023-02-23T08:19:44;7.00;99.90
54264;DHT22;40178;53.042;6.406;2023-02-23T08:22:10;7.70;99.90
54264;DHT22;40178;53.042;6.406;2023-02-23T08:24:36;6.90;99.90
54264;DHT22;40178;53.042;6.406;2023-02-23T08:27:02;7.00;99.90
54264;DHT22;40178;53.042;6.406;2023-02-23T08:29:28;7.00;99.90
54264;DHT22;40178;53.042;6.406;2023-02-23T08:31:54;7.00;99.90
54264;DHT22;40178;53.042;6.406;2023-02-23T08:34:20;6.80;99.90
54264;DHT22;40178;53.042;6.406;2023-02-23T08:36:47;7.10;99.90
54264;DHT22;40178;53.042;6.406;2023-02-23T08:39:13;7.10;99.90
54264;DHT22;40178;53.042;6.406;2023-02-23T08:41:39;7.00;99.90
54264;DHT22;40178;53.042;6.406;2023-02-23T08:44:05;7.10;99.90
54264;DHT22;40178;53.042;6.406;2023-02-23T08:46:31;7.10;99.90
54264;DHT22;40178;53.042;6.406;2023-02-23T08:48:56;7.10;99.90
54264;DHT22;40178;53.042;6.406;2023-02-23T08:51:23;7.10;99.90
54264;DHT22;40178;53.042;6.406;2023-02-23T08:53:48;7.10;99.90
54264;DHT22;40178;53.042;6.406;2023-02-23T08:56:14;7.10;99.90
54264;DHT22;40178;53.042;6.406;2023-02-23T08:58:40;7.20;99.90
54264;DHT22;40178;53.042;6.406;2023-02-23T09:01:06;7.20;99.90
54264;DHT22;40178;53.042;6.406;2023-02-23T09:03:33;7.20;99.90
54264;DHT22;40178;53.042;6.406;2023-02-23T09:06:14;7.40;99.90
54264;DHT22;40178;53.042;6.406;2023-02-23T09:08:40;7.20;99.90
54264;DHT22;40178;53.042;6.406;2023-02-23T09:11:06;7.20;99.90
54264;DHT22;40178;53.042;6.406;2023-02-23T09:13:32;7.30;99.90
54264;DHT22;40178;53.042;6.406;2023-02-23T09:15:57;7.30;99.90
54264;DHT22;40178;53.042;6.406;2023-02-23T09:18:23;7.30;99.90
54264;DHT22;40178;53.042;6.406;2023-02-23T09:20:54;7.30;99.90
54264;DHT22;40178;53.042;6.406;2023-02-23T09:23:19;7.30;99.90
54264;DHT22;40178;53.042;6.406;2023-02-23T09:25:45;7.40;99.90
54264;DHT22;40178;53.042;6.406;2023-02-23T09:28:15;7.30;99.90
54264;DHT22;40178;53.042;6.406;2023-02-23T09:30:43;7.30;99.90
54264;DHT22;40178;53.042;6.406;2023-02-23T09:33:10;7.30;99.90
54264;DHT22;40178;53.042;6.406;2023-02-23T09:35:36;7.30;99.90
54264;DHT22;40178;53.042;6.406;2023-02-23T09:38:03;7.30;99.90
54264;DHT22;40178;53.042;6.406;2023-02-23T09:40:50;7.40;99.90
54264;DHT22;40178;53.042;6.406;2023-02-23T09:43:48;7.40;99.90
54264;DHT22;40178;53.042;6.406;2023-02-23T09:46:24;7.40;99.90
54264;DHT22;40178;53.042;6.406;2023-02-23T09:48:55;7.40;99.90
54264;DHT22;40178;53.042;6.406;2023-02-23T09:51:22;7.40;99.90
54264;DHT22;40178;53.042;6.406;2023-02-23T09:53:50;7.40;99.90
54264;DHT22;40178;53.042;6.406;2023-02-23T09:58:52;7.50;99.90
54264;DHT22;40178;53.042;6.406;2023-02-23T10:01:27;7.60;99.90
54264;DHT22;40178;53.042;6.406;2023-02-23T10:04:05;7.60;99.90
54264;DHT22;40178;53.042;6.406;2023-02-23T10:06:33;8.70;99.90
54264;DHT22;40178;53.042;6.406;2023-02-23T10:15:04;7.70;99.90
54264;DHT22;40178;53.042;6.406;2023-02-23T10:23:04;8.30;99.90
54264;DHT22;40178;53.042;6.406;2023-02-23T10:25:36;8.00;99.90
54264;DHT22;40178;53.042;6.406;2023-02-23T10:28:05;8.00;99.90
54264;DHT22;40178;53.042;6.406;2023-02-23T10:30:34;8.00;99.90
54264;DHT22;40178;53.042;6.406;2023-02-23T10:33:12;8.00;99.90
54264;DHT22;40178;53.042;6.406;2023-02-23T10:35:41;8.90;99.90
54264;DHT22;40178;53.042;6.406;2023-02-23T10:38:14;8.60;99.90
54264;DHT22;40178;53.042;6.406;2023-02-23T10:40:40;7.90;99.90
54264;DHT22;40178;53.042;6.406;2023-02-23T10:43:10;7.90;99.90
54264;DHT22;40178;53.042;6.406;2023-02-23T10:45:44;8.00;99.90
54264;DHT22;40178;53.042;6.406;2023-02-23T10:48:22;9.00;99.90
54264;DHT22;40178;53.042;6.406;2023-02-23T10:50:51;9.00;99.90
54264;DHT22;40178;53.042;6.406;2023-02-23T10:53:25;8.00;99.90
54264;DHT22;40178;53.042;6.406;2023-02-23T10:56:02;8.00;99.90
54264;DHT22;40178;53.042;6.406;2023-02-23T10:58:29;8.10;99.90
54264;DHT22;40178;53.042;6.406;2023-02-23T11:00:56;8.10;99.90
54264;DHT22;40178;53.042;6.406;2023-02-23T11:03:32;8.80;99.90
54264;DHT22;40178;53.042;6.406;2023-02-23T11:05:58;8.10;99.90
54264;DHT22;40178;53.042;6.406;2023-02-23T11:08:32;8.10;99.90
54264;DHT22;40178;53.042;6.406;2023-02-23T11:13:26;8.10;99.90
54264;DHT22;40178;53.042;6.406;2023-02-23T11:16:22;8.10;99.90
54264;DHT22;40178;53.042;6.406;2023-02-23T11:19:03;8.10;99.90
54264;DHT22;40178;53.042;6.406;2023-02-23T11:21:31;8.10;99.90
54264;DHT22;40178;53.042;6.406;2023-02-23T11:26:45;8.10;99.90
54264;DHT22;40178;53.042;6.406;2023-02-23T11:29:30;8.10;99.90
54264;DHT22;40178;53.042;6.406;2023-02-23T11:32:16;8.10;99.90
54264;DHT22;40178;53.042;6.406;2023-02-23T11:34:44;8.20;99.90
54264;DHT22;40178;53.042;6.406;2023-02-23T11:39:54;8.20;99.90
54264;DHT22;40178;53.042;6.406;2023-02-23T11:42:23;8.20;99.90
54264;DHT22;40178;53.042;6.406;2023-02-23T11:45:17;8.10;99.90
54264;DHT22;40178;53.042;6.406;2023-02-23T11:47:48;8.20;99.90
54264;DHT22;40178;53.042;6.406;2023-02-23T11:50:43;8.20;99.90
54264;DHT22;40178;53.042;6.406;2023-02-23T11:53:17;8.30;99.90
54264;DHT22;40178;53.042;6.406;2023-02-23T11:55:51;8.40;99.90
54264;DHT22;40178;53.042;6.406;2023-02-23T11:58:20;8.50;99.90
54264;DHT22;40178;53.042;6.406;2023-02-23T12:00:58;8.60;99.90
54264;DHT22;40178;53.042;6.406;2023-02-23T12:03:26;8.60;99.90
54264;DHT22;40178;53.042;6.406;2023-02-23T12:05:54;8.70;99.90
54264;DHT22;40178;53.042;6.406;2023-02-23T12:08:44;8.70;99.90
54264;DHT22;40178;53.042;6.406;2023-02-23T12:11:17;8.70;99.90
54264;DHT22;40178;53.042;6.406;2023-02-23T12:13:49;8.70;99.90
54264;DHT22;40178;53.042;6.406;2023-02-23T12:16:23;8.70;99.90
54264;DHT22;40178;53.042;6.406;2023-02-23T12:19:01;8.70;99.90
54264;DHT22;40178;53.042;6.406;2023-02-23T12:21:41;8.60;99.90
54264;DHT22;40178;53.042;6.406;2023-02-23T12:26:49;8.60;99.90
54264;DHT22;40178;53.042;6.406;2023-02-23T12:32:09;8.60;99.90
54264;DHT22;40178;53.042;6.406;2023-02-23T12:34:57;8.50;99.90
54264;DHT22;40178;53.042;6.406;2023-02-23T12:40:29;8.50;99.90
54264;DHT22;40178;53.042;6.406;2023-02-23T12:43:20;8.50;99.90
54264;DHT22;40178;53.042;6.406;2023-02-23T12:46:05;8.50;99.90
54264;DHT22;40178;53.042;6.406;2023-02-23T12:51:17;8.40;99.90
54264;DHT22;40178;53.042;6.406;2023-02-23T12:53:46;8.40;99.90
54264;DHT22;40178;53.042;6.406;2023-02-23T12:59:12;8.40;99.90
54264;DHT22;40178;53.042;6.406;2023-02-23T13:01:53;8.40;99.90
54264;DHT22;40178;53.042;6.406;2023-02-23T13:04:52;8.40;99.90
54264;DHT22;40178;53.042;6.406;2023-02-23T13:07:58;8.30;99.90
54264;DHT22;40178;53.042;6.406;2023-02-23T13:13:32;8.40;99.90
54264;DHT22;40178;53.042;6.406;2023-02-23T13:16:23;8.40;99.90
54264;DHT22;40178;53.042;6.406;2023-02-23T13:21:32;8.40;99.90
54264;DHT22;40178;53.042;6.406;2023-02-23T13:24:00;8.30;99.90
54264;DHT22;40178;53.042;6.406;2023-02-23T13:32:02;8.00;99.90
54264;DHT22;40178;53.042;6.406;2023-02-23T13:34:34;7.70;99.90
54264;DHT22;40178;53.042;6.406;2023-02-23T13:37:04;8.40;99.90
54264;DHT22;40178;53.042;6.406;2023-02-23T13:39:44;8.60;99.90
54264;DHT22;40178;53.042;6.406;2023-02-23T13:48:12;7.60;99.90
54264;DHT22;40178;53.042;6.406;2023-02-23T13:50:57;7.50;99.90
54264;DHT22;40178;53.042;6.406;2023-02-23T13:53:36;7.50;99.90
54264;DHT22;40178;53.042;6.406;2023-02-23T13:56:14;7.40;99.90
54264;DHT22;40178;53.042;6.406;2023-02-23T13:58:47;7.30;99.90
54264;DHT22;40178;53.042;6.406;2023-02-23T14:01:36;7.30;99.90
54264;DHT22;40178;53.042;6.406;2023-02-23T14:04:12;7.20;99.90
54264;DHT22;40178;53.042;6.406;2023-02-23T14:06:39;7.40;99.90
54264;DHT22;40178;53.042;6.406;2023-02-23T14:09:20;7.00;99.90
54264;DHT22;40178;53.042;6.406;2023-02-23T14:11:52;7.60;99.90
54264;DHT22;40178;53.042;6.406;2023-02-23T14:19:36;6.90;99.90
54264;DHT22;40178;53.042;6.406;2023-02-23T14:22:09;6.80;99.90
54264;DHT22;40178;53.042;6.406;2023-02-23T14:24:36;6.80;99.90
54264;DHT22;40178;53.042;6.406;2023-02-23T14:27:33;6.80;99.90
54264;DHT22;40178;53.042;6.406;2023-02-23T14:32:41;7.90;99.90
54264;DHT22;40178;53.042;6.406;2023-02-23T14:38:10;6.70;99.90
54264;DHT22;40178;53.042;6.406;2023-02-23T14:40:41;6.70;99.90
54264;DHT22;40178;53.042;6.406;2023-02-23T14:46:03;6.80;99.90
54264;DHT22;40178;53.042;6.406;2023-02-23T14:48:32;6.70;99.90
54264;DHT22;40178;53.042;6.406;2023-02-23T14:51:40;6.60;99.90
54264;DHT22;40178;53.042;6.406;2023-02-23T14:54:24;6.50;99.90
54264;DHT22;40178;53.042;6.406;2023-02-23T14:59:18;6.30;99.90
54264;DHT22;40178;53.042;6.406;2023-02-23T15:01:46;6.40;99.90
54264;DHT22;40178;53.042;6.406;2023-02-23T15:04:24;6.40;99.90
54264;DHT22;40178;53.042;6.406;2023-02-23T15:06:54;6.40;99.90
54264;DHT22;40178;53.042;6.406;2023-02-23T15:09:40;6.40;99.90
54264;DHT22;40178;53.042;6.406;2023-02-23T15:12:23;6.30;99.90
54264;DHT22;40178;53.042;6.406;2023-02-23T15:14:52;6.30;99.90
54264;DHT22;40178;53.042;6.406;2023-02-23T15:17:22;6.00;99.90
54264;DHT22;40178;53.042;6.406;2023-02-23T15:19:53;6.20;99.90
54264;DHT22;40178;53.042;6.406;2023-02-23T15:22:27;6.20;99.90
54264;DHT22;40178;53.042;6.406;2023-02-23T15:24:58;6.20;99.90
54264;DHT22;40178;53.042;6.406;2023-02-23T15:27:38;6.30;99.90
54264;DHT22;40178;53.042;6.406;2023-02-23T15:30:27;6.30;99.90
54264;DHT22;40178;53.042;6.406;2023-02-23T15:33:10;6.30;99.90
54264;DHT22;40178;53.042;6.406;2023-02-23T15:35:51;6.30;99.90
54264;DHT22;40178;53.042;6.406;2023-02-23T15:38:24;6.20;99.90
54264;DHT22;40178;53.042;6.406;2023-02-23T15:40:57;6.10;99.90
54264;DHT22;40178;53.042;6.406;2023-02-23T15:43:24;7.00;99.90
54264;DHT22;40178;53.042;6.406;2023-02-23T15:45:51;6.10;99.90
54264;DHT22;40178;53.042;6.406;2023-02-23T15:48:25;6.20;99.90
54264;DHT22;40178;53.042;6.406;2023-02-23T15:50:54;6.20;99.90
54264;DHT22;40178;53.042;6.406;2023-02-23T15:53:36;6.20;99.90
54264;DHT22;40178;53.042;6.406;2023-02-23T15:56:11;6.20;99.90
54264;DHT22;40178;53.042;6.406;2023-02-23T15:58:40;6.20;99.90
54264;DHT22;40178;53.042;6.406;2023-02-23T16:01:10;7.60;99.90
54264;DHT22;40178;53.042;6.406;2023-02-23T16:03:38;6.20;99.90
54264;DHT22;40178;53.042;6.406;2023-02-23T16:08:57;6.20;99.90
54264;DHT22;40178;53.042;6.406;2023-02-23T16:11:23;6.30;99.90
54264;DHT22;40178;53.042;6.406;2023-02-23T16:13:51;6.20;99.90
54264;DHT22;40178;53.042;6.406;2023-02-23T16:16:19;5.10;99.90
54264;DHT22;40178;53.042;6.406;2023-02-23T16:18:58;6.10;99.90
54264;DHT22;40178;53.042;6.406;2023-02-23T16:21:28;6.00;99.90
54264;DHT22;40178;53.042;6.406;2023-02-23T16:24:06;6.10;99.90
54264;DHT22;40178;53.042;6.406;2023-02-23T16:26:44;6.00;99.90
54264;DHT22;40178;53.042;6.406;2023-02-23T16:29:14;6.00;99.90
54264;DHT22;40178;53.042;6.406;2023-02-23T16:31:46;6.00;99.90
54264;DHT22;40178;53.042;6.406;2023-02-23T16:34:19;6.00;99.90
54264;DHT22;40178;53.042;6.406;2023-02-23T16:36:49;5.90;99.90
54264;DHT22;40178;53.042;6.406;2023-02-23T16:39:15;6.00;99.90
54264;DHT22;40178;53.042;6.406;2023-02-23T16:41:43;5.90;99.90
54264;DHT22;40178;53.042;6.406;2023-02-23T16:44:18;7.40;99.90
54264;DHT22;40178;53.042;6.406;2023-02-23T16:47:09;5.90;99.90
54264;DHT22;40178;53.042;6.406;2023-02-23T16:49:35;5.90;99.90
54264;DHT22;40178;53.042;6.406;2023-02-23T16:52:06;6.90;99.90
54264;DHT22;40178;53.042;6.406;2023-02-23T16:54:37;5.80;99.90
54264;DHT22;40178;53.042;6.406;2023-02-23T16:57:03;7.30;99.90
54264;DHT22;40178;53.042;6.406;2023-02-23T16:59:31;5.70;99.90
54264;DHT22;40178;53.042;6.406;2023-02-23T17:01:56;5.80;99.90
54264;DHT22;40178;53.042;6.406;2023-02-23T17:04:22;5.80;99.90
54264;DHT22;40178;53.042;6.406;2023-02-23T17:06:48;5.80;99.90
54264;DHT22;40178;53.042;6.406;2023-02-23T17:09:19;5.80;99.90
54264;DHT22;40178;53.042;6.406;2023-02-23T17:11:46;5.80;99.90
54264;DHT22;40178;53.042;6.406;2023-02-23T17:14:26;5.80;99.90
54264;DHT22;40178;53.042;6.406;2023-02-23T17:16:52;5.70;99.90
54264;DHT22;40178;53.042;6.406;2023-02-23T17:19:18;5.70;99.90
54264;DHT22;40178;53.042;6.406;2023-02-23T17:21:44;5.70;99.90
54264;DHT22;40178;53.042;6.406;2023-02-23T17:24:10;5.70;99.90
54264;DHT22;40178;53.042;6.406;2023-02-23T17:26:36;5.60;99.90
54264;DHT22;40178;53.042;6.406;2023-02-23T17:29:04;5.60;99.90
54264;DHT22;40178;53.042;6.406;2023-02-23T17:31:29;5.60;99.90
54264;DHT22;40178;53.042;6.406;2023-02-23T17:33:56;5.60;99.90
54264;DHT22;40178;53.042;6.406;2023-02-23T17:36:22;5.50;99.90
54264;DHT22;40178;53.042;6.406;2023-02-23T17:38:48;5.50;99.90
54264;DHT22;40178;53.042;6.406;2023-02-23T17:41:16;5.40;99.90
54264;DHT22;40178;53.042;6.406;2023-02-23T17:43:42;5.30;99.90
54264;DHT22;40178;53.042;6.406;2023-02-23T17:46:08;6.80;99.90
54264;DHT22;40178;53.042;6.406;2023-02-23T17:48:34;5.20;99.90
54264;DHT22;40178;53.042;6.406;2023-02-23T17:51:06;6.50;99.90
54264;DHT22;40178;53.042;6.406;2023-02-23T17:53:34;5.10;99.90
54264;DHT22;40178;53.042;6.406;2023-02-23T17:56:00;5.00;99.90